Time;durP1;ratioP1;P1;durP2;ratioP2;P2;SDS_P1;SDS_P2;PMS_P1;PMS_P2;Temp;Humidity;BMP_temperature;BMP_pressure;BME280_temperature;BME280_humidity;BME280_pressure;Samples;Min_cycle;Max_cycle;Signal;HPM_P1;HPM_P2
2021/09/10 00:02:04;;;;;;;16.23;10.18;;;;;;;13.64;100.00;96652.97;5017992;28;20050;-63
2021/09/10 00:04:29;;;;;;;15.88;9.38;;;;;;;13.62;100.00;96647.84;5034883;28;20585;-65
2021/09/10 00:06:55;;;;;;;13.82;9.10;;;;;;;13.58;100.00;96645.09;5022479;28;20157;-64
2021/09/10 00:09:20;;;;;;;13.40;9.18;;;;;;;13.59;100.00;96651.38;5015165;28;20072;-65
2021/09/10 00:11:46;;;;;;;13.32;8.57;;;;;;;13.53;100.00;96647.41;5021064;28;20092;-65
2021/09/10 00:14:11;;;;;;;13.30;8.50;;;;;;;13.42;100.00;96655.63;5014631;28;20045;-66
2021/09/10 00:16:36;;;;;;;19.40;9.60;;;;;;;13.39;100.00;96657.16;5023407;28;20049;-65
2021/09/10 00:19:02;;;;;;;16.85;9.38;;;;;;;13.35;100.00;96648.13;5020888;28;20112;-65
2021/09/10 00:21:28;;;;;;;17.42;10.38;;;;;;;13.31;100.00;96660.31;5028146;28;20070;-66
2021/09/10 00:23:53;;;;;;;13.07;9.45;;;;;;;13.28;100.00;96647.28;5049674;28;20056;-65
2021/09/10 00:26:19;;;;;;;13.77;9.52;;;;;;;13.26;100.00;96655.13;5026170;28;20164;-65
2021/09/10 00:28:44;;;;;;;14.35;9.38;;;;;;;13.34;100.00;96654.00;5022765;28;20042;-65
2021/09/10 00:31:09;;;;;;;12.57;9.35;;;;;;;13.45;100.00;96651.31;5015234;28;20052;-65
2021/09/10 00:33:35;;;;;;;13.52;8.60;;;;;;;13.67;100.00;96641.97;5019697;28;20037;-65
2021/09/10 00:36:01;;;;;;;12.77;8.50;;;;;;;13.92;100.00;96649.53;5027004;28;20045;-64
2021/09/10 00:38:26;;;;;;;12.10;8.80;;;;;;;14.10;100.00;96664.09;5017866;28;20042;-64
2021/09/10 00:40:52;;;;;;;11.43;8.43;;;;;;;14.15;100.00;96658.22;5031459;28;20454;-62
2021/09/10 00:43:18;;;;;;;11.23;8.13;;;;;;;14.21;100.00;96655.84;5013150;28;20044;-63
2021/09/10 00:45:45;;;;;;;11.18;7.32;;;;;;;14.13;100.00;96654.25;5018850;28;20068;-65
2021/09/10 00:48:11;;;;;;;15.48;7.93;;;;;;;14.18;100.00;96650.34;5013524;28;20034;-65
2021/09/10 00:50:38;;;;;;;13.35;7.95;;;;;;;14.18;100.00;96651.13;5023260;28;20394;-64
2021/09/10 00:53:04;;;;;;;11.90;7.70;;;;;;;14.22;100.00;96659.41;5020008;28;20033;-64
2021/09/10 00:55:30;;;;;;;13.30;7.60;;;;;;;14.19;100.00;96649.97;5021451;28;20057;-64
2021/09/10 00:57:55;;;;;;;11.32;6.97;;;;;;;14.18;100.00;96650.34;5021191;28;20132;-63
2021/09/10 01:02:56;;;;;;;10.57;7.13;;;;;;;14.24;100.00;96651.53;5419199;23;20472;-65
2021/09/10 01:05:22;;;;;;;14.82;7.47;;;;;;;14.25;100.00;96648.38;5009539;28;20155;-64
2021/09/10 01:07:48;;;;;;;11.00;8.20;;;;;;;14.27;100.00;96642.47;5018336;28;20038;-64
2021/09/10 01:10:15;;;;;;;10.38;7.20;;;;;;;14.30;100.00;96650.75;5021702;28;20464;-65
2021/09/10 01:12:42;;;;;;;12.10;8.55;;;;;;;14.00;100.00;96644.81;5042883;28;20076;-66
2021/09/10 01:15:08;;;;;;;13.02;8.23;;;;;;;13.72;100.00;96646.28;5018892;28;20040;-66
2021/09/10 01:17:35;;;;;;;14.23;8.82;;;;;;;13.51;100.00;96649.78;5023166;28;20077;-65
2021/09/10 01:20:00;;;;;;;12.65;8.93;;;;;;;13.39;100.00;96646.16;5024272;28;20496;-66
2021/09/10 01:22:26;;;;;;;16.52;9.82;;;;;;;13.22;100.00;96646.88;5022336;28;20038;-65
2021/09/10 01:25:06;;;;;;;20.42;10.18;;;;;;;13.06;100.00;96644.41;5042262;28;20039;-64
2021/09/10 01:27:32;;;;;;;15.25;9.77;;;;;;;12.87;100.00;96639.97;5042804;28;20052;-64
2021/09/10 01:29:58;;;;;;;15.13;10.25;;;;;;;12.79;100.00;96643.84;5044111;28;20441;-66
2021/09/10 01:32:25;;;;;;;13.88;9.80;;;;;;;12.80;100.00;96645.41;5029146;28;20880;-65
2021/09/10 01:34:50;;;;;;;15.10;9.63;;;;;;;12.89;100.00;96653.34;5042099;28;20134;-65
2021/09/10 01:37:18;;;;;;;16.15;9.75;;;;;;;12.97;100.00;96649.47;5038200;28;20151;-66
2021/09/10 01:39:43;;;;;;;15.88;8.23;;;;;;;12.98;100.00;96648.28;5043701;28;20041;-65
2021/09/10 01:42:09;;;;;;;14.75;8.40;;;;;;;13.04;100.00;96654.22;5038077;28;20037;-66
2021/09/10 01:44:34;;;;;;;12.98;8.98;;;;;;;13.08;100.00;96650.31;5043658;28;20429;-65
2021/09/10 01:47:00;;;;;;;19.02;9.85;;;;;;;13.21;100.00;96650.78;5030646;28;20044;-66
2021/09/10 01:49:26;;;;;;;12.82;8.88;;;;;;;13.29;100.00;96654.34;5028722;28;20041;-65
2021/09/10 01:51:51;;;;;;;14.70;9.10;;;;;;;13.37;100.00;96653.25;5042245;28;20080;-65
2021/09/10 01:54:16;;;;;;;14.13;7.65;;;;;;;13.43;100.00;96665.44;5031382;28;20056;-65
2021/09/10 01:56:42;;;;;;;13.27;8.77;;;;;;;13.24;100.00;96658.25;5035213;28;20091;-65
2021/09/10 01:59:07;;;;;;;16.13;9.52;;;;;;;12.93;100.00;96654.16;5035981;28;20052;-65
2021/09/10 02:01:34;;;;;;;12.30;9.20;;;;;;;12.81;100.00;96650.53;5041914;28;20147;-66
2021/09/10 02:03:59;;;;;;;15.07;9.75;;;;;;;12.76;100.00;96656.38;5042802;28;20044;-65
2021/09/10 02:06:25;;;;;;;13.15;9.20;;;;;;;12.78;100.00;96653.25;5031117;28;20446;-65
2021/09/10 02:08:51;;;;;;;18.73;9.75;;;;;;;12.90;100.00;96654.94;5029002;28;20551;-65
2021/09/10 02:11:16;;;;;;;14.40;8.60;;;;;;;13.12;100.00;96655.84;5031446;28;20045;-65
2021/09/10 02:13:42;;;;;;;11.55;8.23;;;;;;;13.27;100.00;96648.44;5037300;28;20132;-65
2021/09/10 02:16:09;;;;;;;15.05;8.43;;;;;;;13.47;100.00;96647.00;5015964;28;20064;-65
2021/09/10 02:18:35;;;;;;;14.98;8.48;;;;;;;13.58;100.00;96649.81;5022707;28;20068;-65
2021/09/10 02:21:00;;;;;;;15.48;8.50;;;;;;;13.62;100.00;96653.34;5022196;28;20046;-66
2021/09/10 02:23:26;;;;;;;12.73;8.20;;;;;;;13.56;100.00;96652.16;5014112;28;20046;-65
2021/09/10 02:25:51;;;;;;;12.02;8.27;;;;;;;13.54;100.00;96647.03;5030809;28;20063;-65
2021/09/10 02:28:17;;;;;;;12.18;7.55;;;;;;;13.57;100.00;96648.22;5024460;28;20075;-64
2021/09/10 02:30:42;;;;;;;11.45;7.57;;;;;;;13.58;100.00;96653.34;5037881;28;20045;-66
2021/09/10 02:33:07;;;;;;;11.95;7.30;;;;;;;13.56;100.00;96650.19;5024056;28;20135;-65
2021/09/10 02:35:33;;;;;;;10.35;7.35;;;;;;;13.57;100.00;96648.22;5023353;28;20073;-65
2021/09/10 02:37:58;;;;;;;10.98;7.60;;;;;;;13.56;100.00;96647.44;5024951;28;20041;-66
2021/09/10 02:40:24;;;;;;;11.55;7.80;;;;;;;13.54;100.00;96651.72;5015350;28;20918;-65
2021/09/10 02:42:49;;;;;;;12.13;7.93;;;;;;;13.52;100.00;96651.34;5031863;28;20716;-65
2021/09/10 02:45:15;;;;;;;12.00;7.30;;;;;;;13.48;100.00;96651.31;5036719;28;20045;-65
2021/09/10 02:47:41;;;;;;;11.18;7.35;;;;;;;13.42;100.00;96652.88;5031003;28;20140;-65
2021/09/10 02:50:07;;;;;;;14.23;8.13;;;;;;;13.25;100.00;96651.56;5034426;28;20128;-64
2021/09/10 02:52:33;;;;;;;13.45;8.05;;;;;;;13.16;100.00;96659.38;5032130;28;20049;-64
2021/09/10 02:54:59;;;;;;;11.95;8.07;;;;;;;13.05;100.00;96648.31;5022154;28;20461;-63
2021/09/10 02:57:24;;;;;;;12.27;8.43;;;;;;;12.95;100.00;96647.09;5028534;28;20051;-65
2021/09/10 02:59:50;;;;;;;13.70;8.98;;;;;;;12.88;100.00;96652.56;5042148;28;20036;-66
2021/09/10 03:02:16;;;;;;;13.05;8.57;;;;;;;12.98;100.00;96638.09;5027063;28;20045;-67
2021/09/10 03:04:45;;;;;;;13.00;9.38;;;;;;;13.17;100.00;96650.75;5048462;28;20051;-66
2021/09/10 03:07:11;;;;;;;13.20;8.38;;;;;;;13.32;100.00;96643.38;5022320;28;20102;-65
2021/09/10 03:09:36;;;;;;;13.70;8.38;;;;;;;13.33;100.00;96647.72;5045129;28;20138;-65
2021/09/10 03:12:02;;;;;;;13.20;7.82;;;;;;;13.27;100.00;96646.50;5046514;28;20045;-65
2021/09/10 03:14:30;;;;;;;10.40;7.47;;;;;;;13.34;100.00;96652.06;5025618;28;20049;-64
2021/09/10 03:16:56;;;;;;;9.77;7.25;;;;;;;13.42;100.00;96646.59;5032624;28;20110;-65
2021/09/10 03:19:21;;;;;;;13.45;8.10;;;;;;;13.55;100.00;96645.84;5033600;28;20067;-65
2021/09/10 03:21:47;;;;;;;11.65;7.63;;;;;;;13.56;100.00;96646.66;5037137;28;20095;-65
2021/09/10 03:24:12;;;;;;;11.27;7.95;;;;;;;13.43;100.00;96643.44;5018618;28;20055;-63
2021/09/10 03:26:39;;;;;;;13.68;7.85;;;;;;;13.37;100.00;96643.03;5018876;28;20041;-64
2021/09/10 03:29:05;;;;;;;14.15;8.02;;;;;;;13.40;100.00;96638.72;5016740;28;20033;-63
2021/09/10 03:31:30;;;;;;;11.23;8.05;;;;;;;13.39;100.00;96639.88;5020417;28;20100;-63
2021/09/10 03:33:56;;;;;;;15.82;8.27;;;;;;;13.15;100.00;96633.84;5021317;28;20071;-63
2021/09/10 03:36:21;;;;;;;12.43;7.93;;;;;;;13.11;100.00;96629.53;5015684;28;20045;-64
2021/09/10 03:38:46;;;;;;;11.35;8.02;;;;;;;12.95;100.00;96627.84;5031149;28;20056;-64
2021/09/10 03:41:12;;;;;;;11.60;7.85;;;;;;;12.85;100.00;96627.78;5033594;28;20064;-65
2021/09/10 03:43:38;;;;;;;16.55;9.30;;;;;;;12.75;100.00;96627.34;5023223;28;20441;-66
2021/09/10 03:46:04;;;;;;;12.93;8.63;;;;;;;12.78;100.00;96634.03;5034250;28;20052;-66
2021/09/10 03:48:29;;;;;;;15.85;9.10;;;;;;;12.78;100.00;96632.09;5021389;28;20478;-65
2021/09/10 03:50:55;;;;;;;16.13;9.60;;;;;;;12.82;100.00;96632.88;5019004;28;20151;-66
2021/09/10 03:53:20;;;;;;;18.77;8.77;;;;;;;12.59;100.00;96635.09;5014598;28;20033;-66
2021/09/10 03:55:45;;;;;;;13.23;9.98;;;;;;;12.42;100.00;96626.34;5024224;28;20490;-64
2021/09/10 03:58:11;;;;;;;14.95;9.02;;;;;;;12.60;100.00;96631.16;5010615;28;20068;-68
2021/09/10 04:00:36;;;;;;;12.52;8.70;;;;;;;12.71;100.00;96631.22;5028945;28;20068;-65
2021/09/10 04:03:03;;;;;;;20.77;8.27;;;;;;;12.79;100.00;96630.91;5022514;28;20113;-66
2021/09/10 04:05:29;;;;;;;13.55;9.02;;;;;;;12.87;100.00;96626.22;5042695;28;20030;-65
2021/09/10 04:07:54;;;;;;;14.98;9.10;;;;;;;12.87;100.00;96623.47;5034652;28;20556;-64
2021/09/10 04:10:20;;;;;;;10.00;7.82;;;;;;;12.88;100.00;96627.03;5018085;28;20038;-64
2021/09/10 04:12:45;;;;;;;14.23;9.43;;;;;;;12.77;100.00;96624.22;5019735;28;20168;-64
2021/09/10 04:15:11;;;;;;;14.30;8.68;;;;;;;12.56;100.00;96620.13;5020886;28;20410;-64
2021/09/10 04:17:36;;;;;;;16.73;10.57;;;;;;;12.40;100.00;96625.13;5019591;28;20045;-64
2021/09/10 04:20:02;;;;;;;19.13;10.43;;;;;;;12.36;100.00;96613.31;5030203;28;20079;-65
2021/09/10 04:22:27;;;;;;;17.58;11.38;;;;;;;12.26;100.00;96619.50;5026976;28;21977;-66
2021/09/10 04:24:53;;;;;;;15.73;10.52;;;;;;;12.16;100.00;96618.25;5038254;28;20490;-65
2021/09/10 04:27:18;;;;;;;15.05;10.93;;;;;;;12.12;100.00;96614.69;5035110;28;20037;-66
2021/09/10 04:29:43;;;;;;;23.45;12.20;;;;;;;12.16;100.00;96618.25;5037928;28;20095;-65
2021/09/10 04:32:09;;;;;;;18.02;10.82;;;;;;;12.36;100.00;96625.09;5055143;28;20125;-65
2021/09/10 04:34:34;;;;;;;18.80;11.07;;;;;;;12.50;100.00;96616.19;5054656;28;20052;-68
2021/09/10 04:37:01;;;;;;;15.43;10.30;;;;;;;12.48;100.00;96623.22;5058589;28;20100;-66
2021/09/10 04:39:26;;;;;;;19.73;11.20;;;;;;;12.45;100.00;96627.53;5028685;28;20799;-64
2021/09/10 04:41:51;;;;;;;18.15;10.13;;;;;;;12.41;100.00;96624.75;5029418;28;20045;-64
2021/09/10 04:44:17;;;;;;;17.52;11.10;;;;;;;12.46;100.00;96625.56;5020539;28;20049;-65
2021/09/10 04:46:42;;;;;;;20.40;12.68;;;;;;;12.46;100.00;96626.38;5031654;28;20069;-66
2021/09/10 04:49:07;;;;;;;18.77;11.85;;;;;;;12.38;100.00;96624.72;5017489;28;20413;-65
2021/09/10 04:51:33;;;;;;;17.98;13.35;;;;;;;12.33;100.00;96617.59;5021932;28;20071;-66
2021/09/10 04:54:00;;;;;;;19.80;14.00;;;;;;;12.39;100.00;96624.34;5031624;28;20041;-63
2021/09/10 04:56:26;;;;;;;21.95;14.68;;;;;;;12.52;100.00;96621.31;5025600;28;20057;-64
2021/09/10 04:58:52;;;;;;;23.17;14.30;;;;;;;12.58;100.00;96625.25;5030101;28;20826;-64
2021/09/10 05:01:17;;;;;;;18.08;12.98;;;;;;;12.62;100.00;96626.06;5004462;28;20049;-64
2021/09/10 05:03:42;;;;;;;20.10;13.43;;;;;;;12.69;100.00;96630.81;5026376;28;20049;-65
2021/09/10 05:06:08;;;;;;;19.98;13.00;;;;;;;12.72;100.00;96633.59;5028403;28;20049;-66
2021/09/10 05:08:33;;;;;;;21.98;12.57;;;;;;;12.75;100.00;96629.31;5025937;28;20466;-65
2021/09/10 05:10:58;;;;;;;18.95;13.30;;;;;;;12.81;100.00;96633.28;5024572;28;20041;-67
2021/09/10 05:13:24;;;;;;;21.50;13.30;;;;;;;12.98;100.00;96635.34;5035211;28;20132;-66
2021/09/10 05:15:49;;;;;;;18.30;12.07;;;;;;;13.10;100.00;96636.19;5043186;28;20047;-66
2021/09/10 05:18:15;;;;;;;19.38;11.95;;;;;;;13.26;100.00;96633.91;5025994;28;20045;-66
2021/09/10 05:20:40;;;;;;;15.45;11.23;;;;;;;13.45;100.00;96632.84;5031202;28;20049;-64
2021/09/10 05:23:06;;;;;;;18.13;12.00;;;;;;;13.64;100.00;96633.69;5026327;28;20128;-62
2021/09/10 05:25:31;;;;;;;17.48;10.48;;;;;;;13.80;100.00;96636.13;5029696;28;20052;-65
2021/09/10 05:27:57;;;;;;;17.73;10.45;;;;;;;14.03;100.00;96633.81;5029628;28;20084;-65
2021/09/10 05:30:22;;;;;;;18.00;11.13;;;;;;;14.18;100.00;96634.59;5022532;28;20080;-64
2021/09/10 05:32:48;;;;;;;16.08;10.70;;;;;;;14.43;100.00;96644.84;5030729;28;20402;-64
2021/09/10 05:35:15;;;;;;;14.23;9.43;;;;;;;14.96;100.00;96638.53;5022122;28;20053;-65
2021/09/10 05:37:40;;;;;;;17.48;9.45;;;;;;;15.80;97.64;96639.84;5026308;28;20049;-65
2021/09/10 05:40:07;;;;;;;16.23;8.65;;;;;;;15.96;92.28;96637.41;5037680;28;20064;-66
2021/09/10 05:42:32;;;;;;;14.55;9.40;;;;;;;15.54;94.83;96641.91;5035902;28;20049;-66
2021/09/10 05:44:58;;;;;;;12.35;8.63;;;;;;;16.00;93.33;96635.38;5029305;28;20060;-65
2021/09/10 05:47:23;;;;;;;12.13;8.02;;;;;;;16.09;92.87;96634.94;5022554;28;20380;-66
2021/09/10 05:49:49;;;;;;;14.40;9.07;;;;;;;16.38;90.62;96640.28;5037890;28;20056;-65
2021/09/10 05:52:14;;;;;;;12.05;7.70;;;;;;;17.58;87.56;96638.75;5024425;28;20106;-64
2021/09/10 05:54:39;;;;;;;14.75;7.78;;;;;;;17.74;83.88;96643.69;5029012;28;20053;-66
2021/09/10 05:57:05;;;;;;;12.05;7.38;;;;;;;17.27;86.63;96640.66;5022075;28;20199;-64
2021/09/10 05:59:31;;;;;;;13.18;7.72;;;;;;;17.95;84.82;96650.94;5040384;28;20049;-64
2021/09/10 06:01:56;;;;;;;10.93;7.35;;;;;;;18.63;81.52;96649.16;5022489;28;20127;-65
2021/09/10 06:04:22;;;;;;;13.70;7.63;;;;;;;19.20;78.18;96644.63;5022228;28;20213;-66
2021/09/10 06:06:47;;;;;;;13.30;8.13;;;;;;;17.59;86.70;96640.28;5032883;28;20045;-65
2021/09/10 06:09:12;;;;;;;11.05;7.43;;;;;;;17.31;89.62;96647.75;5018567;28;20041;-65
2021/09/10 06:11:38;;;;;;;13.63;8.20;;;;;;;18.07;86.15;96642.06;5031477;28;20402;-65
2021/09/10 06:14:03;;;;;;;16.25;7.95;;;;;;;18.22;84.59;96642.66;5025101;28;20045;-64
2021/09/10 06:16:29;;;;;;;9.98;6.72;;;;;;;19.61;79.90;96643.47;5030464;28;20574;-65
2021/09/10 06:18:55;;;;;;;11.60;7.07;;;;;;;19.47;76.21;96634.19;5026956;28;20057;-64
2021/09/10 06:21:20;;;;;;;11.80;7.28;;;;;;;19.60;75.64;96641.88;5017689;28;20040;-65
2021/09/10 06:23:46;;;;;;;9.95;6.53;;;;;;;19.42;74.53;96637.44;5022990;28;20368;-65
2021/09/10 06:26:11;;;;;;;14.60;10.07;;;;;;;20.21;70.31;96641.38;5029938;28;20080;-65
2021/09/10 06:28:37;;;;;;;10.98;6.90;;;;;;;19.96;71.42;96646.72;5041921;28;20087;-65
2021/09/10 06:31:03;;;;;;;11.63;6.60;;;;;;;20.89;66.37;96641.78;5032777;28;20053;-64
2021/09/10 06:33:28;;;;;;;10.48;6.78;;;;;;;21.49;64.04;96651.78;5024374;28;20052;-65
2021/09/10 06:35:54;;;;;;;12.55;7.00;;;;;;;21.72;62.20;96650.75;5023117;28;20053;-64
2021/09/10 06:38:19;;;;;;;10.65;6.32;;;;;;;21.26;66.13;96650.75;5036505;28;20049;-67
2021/09/10 06:40:44;;;;;;;13.38;7.57;;;;;;;20.92;66.18;96640.91;5043833;28;20068;-65
2021/09/10 06:43:10;;;;;;;12.90;7.05;;;;;;;20.80;65.49;96652.75;5033435;28;20073;-66
2021/09/10 06:45:35;;;;;;;10.88;6.72;;;;;;;21.12;65.77;96651.13;5031647;28;20446;-65
2021/09/10 06:48:01;;;;;;;11.50;7.70;;;;;;;19.73;70.48;96648.38;5028515;28;20044;-65
2021/09/10 06:50:26;;;;;;;10.45;7.65;;;;;;;20.17;70.48;96653.81;5027459;28;20037;-65
2021/09/10 06:52:52;;;;;;;11.57;7.15;;;;;;;20.58;67.88;96655.22;5022272;28;20466;-65
2021/09/10 06:55:17;;;;;;;15.70;8.63;;;;;;;19.65;71.53;96656.03;5016162;28;20042;-65
2021/09/10 06:57:43;;;;;;;14.23;7.00;;;;;;;20.74;68.59;96646.94;5022060;28;20045;-65
2021/09/10 07:00:09;;;;;;;12.85;7.63;;;;;;;20.93;67.50;96653.59;5017242;28;20405;-66
2021/09/10 07:02:34;;;;;;;10.50;7.13;;;;;;;20.92;67.02;96662.38;5021573;28;20071;-65
2021/09/10 07:05:00;;;;;;;12.63;8.02;;;;;;;21.32;65.34;96664.94;5022084;28;20479;-65
2021/09/10 07:07:25;;;;;;;12.70;7.00;;;;;;;20.76;66.52;96660.38;5015640;28;20765;-63
2021/09/10 07:09:51;;;;;;;9.77;6.45;;;;;;;22.65;61.24;96663.88;5018871;28;20038;-64
2021/09/10 07:12:19;;;;;;;12.05;7.18;;;;;;;21.02;64.74;96663.34;5023374;28;20438;-67
2021/09/10 07:14:45;;;;;;;11.18;7.47;;;;;;;20.45;67.78;96666.25;5041430;28;20116;-65
2021/09/10 07:17:10;;;;;;;12.60;7.78;;;;;;;21.92;63.26;96667.28;5037529;28;20069;-66
2021/09/10 07:19:36;;;;;;;10.30;6.53;;;;;;;23.15;57.68;96664.28;5024236;28;20049;-64
2021/09/10 07:22:02;;;;;;;12.43;7.97;;;;;;;22.12;62.44;96664.31;5028060;28;20072;-65
2021/09/10 07:24:27;;;;;;;14.38;6.90;;;;;;;22.69;60.18;96661.78;5018982;28;20132;-64
2021/09/10 07:26:53;;;;;;;10.63;7.03;;;;;;;22.05;62.24;96661.72;5024281;28;20041;-63
2021/09/10 07:29:20;;;;;;;11.50;7.53;;;;;;;23.79;57.22;96670.38;5028322;28;20041;-66
2021/09/10 07:31:47;;;;;;;9.68;6.88;;;;;;;24.04;55.57;96655.50;5041346;28;20045;-66
2021/09/10 07:34:12;;;;;;;12.73;7.57;;;;;;;23.96;55.64;96667.41;5035375;28;20037;-66
2021/09/10 07:36:38;;;;;;;12.30;7.55;;;;;;;23.41;56.81;96667.78;5041140;28;20044;-66
2021/09/10 07:39:03;;;;;;;12.35;7.93;;;;;;;24.49;54.38;96669.38;5038770;28;20045;-65
2021/09/10 07:41:28;;;;;;;13.55;7.55;;;;;;;24.99;53.00;96670.19;5024128;28;20108;-65
2021/09/10 07:43:54;;;;;;;15.73;6.85;;;;;;;25.78;50.73;96669.63;5028872;28;20042;-65
2021/09/10 07:46:19;;;;;;;15.70;7.70;;;;;;;23.25;57.35;96675.09;5023210;28;20048;-66
2021/09/10 07:48:44;;;;;;;10.48;6.72;;;;;;;24.06;55.21;96674.63;5038374;28;20156;-65
2021/09/10 07:51:10;;;;;;;11.57;6.90;;;;;;;23.51;56.46;96674.22;5032461;28;20397;-67
2021/09/10 07:53:35;;;;;;;12.82;7.80;;;;;;;22.81;59.09;96680.50;5041290;28;20068;-63
2021/09/10 07:56:01;;;;;;;10.50;7.38;;;;;;;24.26;54.77;96681.88;5040847;28;20044;-65
2021/09/10 07:58:26;;;;;;;14.80;7.68;;;;;;;23.67;57.42;96685.97;5039086;28;20057;-65
2021/09/10 08:00:51;;;;;;;9.77;6.93;;;;;;;24.66;53.29;96689.56;5047375;28;20542;-64
2021/09/10 08:03:17;;;;;;;11.77;7.10;;;;;;;24.94;52.62;96680.00;5035900;28;20071;-65
2021/09/10 08:05:42;;;;;;;12.98;6.93;;;;;;;27.09;46.82;96675.13;5040490;28;20044;-65
2021/09/10 08:08:08;;;;;;;10.25;6.20;;;;;;;26.34;49.14;96687.16;5035429;28;20041;-65
2021/09/10 08:10:33;;;;;;;9.20;6.95;;;;;;;24.98;51.60;96683.41;5026651;28;20037;-66
2021/09/10 08:12:58;;;;;;;11.90;6.93;;;;;;;25.00;51.55;96675.31;5018990;28;20493;-66
2021/09/10 08:15:24;;;;;;;10.23;6.88;;;;;;;25.19;50.54;96689.34;5015128;28;20173;-64
2021/09/10 08:17:49;;;;;;;10.40;6.28;;;;;;;26.15;49.00;96688.47;5019779;28;20081;-66
2021/09/10 08:20:15;;;;;;;8.90;6.00;;;;;;;27.79;45.03;96682.44;5017577;28;20041;-65
2021/09/10 08:22:41;;;;;;;8.38;6.03;;;;;;;28.71;42.23;96682.75;5022648;28;20660;-66
2021/09/10 08:25:09;;;;;;;6.82;5.30;;;;;;;29.43;39.54;96693.50;5015579;28;20033;-64
2021/09/10 08:27:36;;;;;;;7.95;5.45;;;;;;;28.92;41.41;96698.44;5024900;28;20045;-65
2021/09/10 08:30:03;;;;;;;10.88;6.63;;;;;;;26.95;45.89;96701.13;5025910;28;20073;-65
2021/09/10 08:32:28;;;;;;;8.07;5.88;;;;;;;27.44;45.25;96685.06;5021639;28;20046;-65
2021/09/10 08:34:54;;;;;;;8.40;5.30;;;;;;;27.97;44.19;96692.00;5024818;28;20437;-65
2021/09/10 08:37:19;;;;;;;9.85;6.85;;;;;;;25.25;50.39;96689.56;5015324;28;20041;-65
2021/09/10 08:39:45;;;;;;;10.30;5.97;;;;;;;27.03;46.89;96688.28;5019458;28;20258;-65
2021/09/10 08:42:11;;;;;;;8.85;5.50;;;;;;;29.66;41.62;96691.75;5014670;28;20390;-65
2021/09/10 08:44:41;;;;;;;9.73;5.35;;;;;;;29.69;40.39;96693.59;5020377;28;20516;-66
2021/09/10 08:47:08;;;;;;;7.82;5.05;;;;;;;29.61;41.80;96697.31;5015031;28;20042;-66
2021/09/10 08:49:34;;;;;;;6.28;5.13;;;;;;;29.50;41.73;96704.38;5020288;28;20109;-66
2021/09/10 08:52:00;;;;;;;8.57;4.72;;;;;;;29.52;41.75;96707.47;5020259;28;20128;-66
2021/09/10 08:54:25;;;;;;;9.02;5.30;;;;;;;30.31;40.42;96705.53;5014745;28;20453;-66
2021/09/10 08:56:51;;;;;;;8.38;5.32;;;;;;;29.58;40.89;96707.53;5019957;28;20045;-64
2021/09/10 08:59:18;;;;;;;7.43;5.47;;;;;;;29.31;42.06;96703.88;5012205;28;20494;-64
2021/09/10 09:01:58;;;;;;;10.48;5.63;;;;;;;29.22;42.36;96704.00;5016016;28;20045;-65
2021/09/10 09:04:30;;;;;;;10.10;5.20;;;;;;;29.27;42.09;96708.19;5014107;28;20457;-65
2021/09/10 09:06:56;;;;;;;8.52;5.80;;;;;;;28.79;41.71;96706.44;5020287;28;20585;-64
2021/09/10 09:09:40;;;;;;;7.97;5.55;;;;;;;30.03;40.03;96704.47;5010180;28;20068;-65
2021/09/10 09:12:22;;;;;;;10.65;5.47;;;;;;;30.29;38.94;96710.13;5015505;28;20120;-64
2021/09/10 09:14:49;;;;;;;9.32;5.20;;;;;;;30.53;38.66;96712.66;5027859;28;20049;-65
2021/09/10 09:17:23;;;;;;;7.53;5.10;;;;;;;30.16;39.72;96706.91;5021292;28;20121;-65
2021/09/10 09:20:10;;;;;;;9.70;5.40;;;;;;;30.00;39.65;96711.09;5022068;28;20037;-65
2021/09/10 09:23:07;;;;;;;12.38;5.93;;;;;;;29.29;41.89;96709.22;5004070;28;20091;-65
2021/09/10 09:25:36;;;;;;;10.90;5.25;;;;;;;29.77;40.95;96722.16;5022625;28;20669;-64
2021/09/10 09:28:24;;;;;;;7.05;5.10;;;;;;;29.93;40.05;96718.00;5019797;28;20540;-65
2021/09/10 09:30:53;;;;;;;7.47;4.97;;;;;;;29.89;39.36;96709.75;5021029;28;20041;-65
2021/09/10 09:33:19;;;;;;;;;;;;;;;31.20;38.27;96712.38;5018787;28;20033;-66
2021/09/10 09:35:46;;;;;;;7.97;4.63;;;;;;;31.24;38.37;96703.66;5020800;28;19940;-64
2021/09/10 09:38:18;;;;;;;5.63;4.30;;;;;;;30.72;37.41;96706.63;5017542;28;20048;-64
2021/09/10 09:40:52;;;;;;;11.98;4.97;;;;;;;31.71;35.11;96703.38;5024992;28;20449;-64
2021/09/10 09:43:28;;;;;;;7.28;5.15;;;;;;;30.83;36.57;96706.75;5019181;28;20041;-64
2021/09/10 09:45:54;;;;;;;6.72;4.82;;;;;;;30.51;37.04;96705.97;5028645;28;20038;-65
2021/09/10 09:48:21;;;;;;;6.15;4.28;;;;;;;30.60;37.10;96711.44;5016931;28;20034;-64
2021/09/10 09:50:48;;;;;;;6.88;4.30;;;;;;;30.44;37.94;96710.78;5025716;28;20041;-65
2021/09/10 09:53:15;;;;;;;10.88;4.75;;;;;;;29.62;39.37;96710.94;5018491;28;20144;-64
2021/09/10 09:55:45;;;;;;;8.27;4.97;;;;;;;29.09;41.94;96709.19;5031407;28;20095;-65
2021/09/10 09:58:11;;;;;;;5.93;4.60;;;;;;;29.71;41.56;96707.97;5027614;28;20046;-64
2021/09/10 10:00:38;;;;;;;10.00;5.07;;;;;;;29.96;40.55;96710.56;5026304;28;20044;-65
2021/09/10 10:03:05;;;;;;;8.52;5.18;;;;;;;29.38;42.32;96710.38;5016247;28;20449;-66
2021/09/10 10:05:32;;;;;;;10.48;6.20;;;;;;;29.01;42.92;96708.84;5021719;28;20045;-65
2021/09/10 10:08:04;;;;;;;7.68;5.53;;;;;;;28.59;45.47;96712.78;5021985;28;20041;-64
2021/09/10 10:10:37;;;;;;;11.45;6.00;;;;;;;28.24;46.03;96716.28;5015967;28;20060;-65
2021/09/10 10:13:05;;;;;;;10.95;5.80;;;;;;;29.51;43.63;96705.13;5020551;28;20106;-65
2021/09/10 10:15:31;;;;;;;10.30;5.70;;;;;;;28.60;44.80;96711.53;5023877;28;20038;-64
2021/09/10 10:17:59;;;;;;;9.35;4.85;;;;;;;30.36;40.82;96708.91;5023033;28;20387;-65
2021/09/10 10:20:44;;;;;;;9.13;5.82;;;;;;;29.78;41.56;96708.81;5014384;28;20037;-64
2021/09/10 10:23:43;;;;;;;10.30;5.45;;;;;;;29.74;40.99;96706.19;5016903;28;20044;-65
2021/09/10 10:26:12;;;;;;;9.98;5.20;;;;;;;29.81;40.97;96705.03;5019204;28;20049;-65
2021/09/10 10:28:51;;;;;;;;;;;;;;;31.15;37.92;96696.19;5025686;28;20393;-64
2021/09/10 10:31:18;;;;;;;8.32;5.07;;;;;;;29.01;41.16;96702.41;5019876;28;20629;-64
2021/09/10 10:33:49;;;;;;;7.78;5.10;;;;;;;29.69;42.59;96706.91;5022022;28;20144;-65
2021/09/10 10:36:31;;;;;;;7.65;4.60;;;;;;;30.72;39.51;96696.13;5014964;28;20130;-64
2021/09/10 10:39:27;;;;;;;8.02;5.38;;;;;;;29.00;42.47;96701.63;5022414;28;20045;-63
2021/09/10 10:41:57;;;;;;;7.05;5.10;;;;;;;30.16;40.29;96690.75;5020159;28;20042;-65
2021/09/10 10:44:32;;;;;;;8.20;4.90;;;;;;;29.71;41.13;96696.69;5020123;28;20702;-65
2021/09/10 10:47:10;;;;;;;8.20;5.13;;;;;;;30.15;39.99;96688.44;5023825;28;20044;-65
2021/09/10 10:49:54;;;;;;;7.40;4.93;;;;;;;29.32;40.47;96693.38;5021399;28;20490;-65
2021/09/10 10:52:36;;;;;;;6.63;4.00;;;;;;;28.56;41.34;96696.88;5016684;28;20049;-65
2021/09/10 10:55:23;;;;;;;7.50;4.90;;;;;;;27.82;41.65;96686.31;5020235;28;20084;-65
2021/09/10 10:57:51;;;;;;;8.77;5.00;;;;;;;27.89;42.75;96688.75;5022502;28;20037;-64
2021/09/10 11:00:28;;;;;;;5.78;4.22;;;;;;;28.05;41.79;96681.91;5016615;28;20437;-65
2021/09/10 11:03:18;;;;;;;6.30;4.22;;;;;;;28.41;40.81;96688.41;5019823;28;20044;-65
2021/09/10 11:05:50;;;;;;;7.32;4.18;;;;;;;28.78;41.55;96683.13;5022020;28;20045;-65
2021/09/10 11:08:35;;;;;;;5.32;3.78;;;;;;;29.10;39.52;96680.50;5017774;28;20045;-65
2021/09/10 11:11:01;;;;;;;6.68;4.03;;;;;;;27.98;41.44;96679.47;5022466;28;20079;-65
2021/09/10 11:13:27;;;;;;;8.25;3.97;;;;;;;28.01;40.99;96673.66;5017951;28;20045;-65
2021/09/10 11:15:53;;;;;;;7.60;4.57;;;;;;;27.55;42.28;96671.25;5020547;28;20037;-64
2021/09/10 11:18:19;;;;;;;6.63;4.18;;;;;;;27.50;41.44;96685.19;5010346;28;20124;-65
2021/09/10 11:20:48;;;;;;;13.18;3.88;;;;;;;27.44;41.69;96677.41;5028720;28;20037;-65
2021/09/10 11:23:20;;;;;;;8.07;4.15;;;;;;;27.76;41.64;96671.38;5020445;28;20040;-63
2021/09/10 11:25:56;;;;;;;9.13;4.88;;;;;;;28.11;40.97;96670.72;5023287;28;20033;-64